sensor_id;sensor_type;location;lat;lon;timestamp;pressure;altitude;pressure_sealevel;temperature;humidity
23899;BME280;20544;50.018;20.010;2023-01-29T00:01:39;99646.27;;;-0.26;100.00
23899;BME280;20544;50.018;20.010;2023-01-29T00:04:56;99654.82;;;-0.38;100.00
23899;BME280;20544;50.018;20.010;2023-01-29T00:08:14;99645.31;;;-0.39;100.00
23899;BME280;20544;50.018;20.010;2023-01-29T00:11:30;99645.88;;;-0.48;100.00
23899;BME280;20544;50.018;20.010;2023-01-29T00:14:46;99647.61;;;-0.63;100.00
23899;BME280;20544;50.018;20.010;2023-01-29T00:18:02;99649.77;;;-0.56;100.00
23899;BME280;20544;50.018;20.010;2023-01-29T00:21:20;99656.92;;;-0.59;100.00
23899;BME280;20544;50.018;20.010;2023-01-29T00:24:38;99660.91;;;-0.54;100.00
23899;BME280;20544;50.018;20.010;2023-01-29T00:27:55;99661.87;;;-0.55;100.00
23899;BME280;20544;50.018;20.010;2023-01-29T00:31:13;99664.38;;;-0.53;100.00
23899;BME280;20544;50.018;20.010;2023-01-29T00:34:30;99666.79;;;-0.50;100.00
23899;BME280;20544;50.018;20.010;2023-01-29T00:37:47;99663.77;;;-0.42;100.00
23899;BME280;20544;50.018;20.010;2023-01-29T00:41:08;99655.74;;;-0.39;100.00
23899;BME280;20544;50.018;20.010;2023-01-29T00:44:39;99655.58;;;-0.36;100.00
23899;BME280;20544;50.018;20.010;2023-01-29T00:48:11;99666.17;;;-0.39;100.00
23899;BME280;20544;50.018;20.010;2023-01-29T00:51:27;99664.48;;;-0.40;100.00
23899;BME280;20544;50.018;20.010;2023-01-29T00:54:43;99669.70;;;-0.40;100.00
23899;BME280;20544;50.018;20.010;2023-01-29T00:57:59;99667.00;;;-0.39;100.00
23899;BME280;20544;50.018;20.010;2023-01-29T01:01:16;99667.19;;;-0.42;100.00
23899;BME280;20544;50.018;20.010;2023-01-29T01:04:34;99663.09;;;-0.46;100.00
23899;BME280;20544;50.018;20.010;2023-01-29T01:07:53;99663.83;;;-0.44;100.00
23899;BME280;20544;50.018;20.010;2023-01-29T01:11:10;99677.63;;;-0.42;100.00
23899;BME280;20544;50.018;20.010;2023-01-29T01:14:26;99668.22;;;-0.44;100.00
23899;BME280;20544;50.018;20.010;2023-01-29T01:17:43;99678.64;;;-0.44;100.00
23899;BME280;20544;50.018;20.010;2023-01-29T01:21:00;99672.41;;;-0.42;100.00
23899;BME280;20544;50.018;20.010;2023-01-29T01:24:16;99670.16;;;-0.48;100.00
23899;BME280;20544;50.018;20.010;2023-01-29T01:27:33;99672.67;;;-0.46;100.00
23899;BME280;20544;50.018;20.010;2023-01-29T01:30:50;99674.91;;;-0.55;100.00
23899;BME280;20544;50.018;20.010;2023-01-29T01:34:06;99675.63;;;-0.53;100.00
23899;BME280;20544;50.018;20.010;2023-01-29T01:37:22;99686.05;;;-0.53;100.00
23899;BME280;20544;50.018;20.010;2023-01-29T01:40:44;99682.53;;;-0.52;100.00
23899;BME280;20544;50.018;20.010;2023-01-29T01:44:02;99682.72;;;-0.55;100.00
23899;BME280;20544;50.018;20.010;2023-01-29T01:47:21;99683.80;;;-0.59;100.00
23899;BME280;20544;50.018;20.010;2023-01-29T01:50:42;99689.66;;;-0.70;100.00
23899;BME280;20544;50.018;20.010;2023-01-29T01:54:04;99685.75;;;-0.62;100.00
23899;BME280;20544;50.018;20.010;2023-01-29T01:57:24;99689.56;;;-0.68;100.00
23899;BME280;20544;50.018;20.010;2023-01-29T02:00:41;99680.47;;;-0.61;100.00
23899;BME280;20544;50.018;20.010;2023-01-29T02:04:00;99683.45;;;-0.53;100.00
23899;BME280;20544;50.018;20.010;2023-01-29T02:07:32;99679.83;;;-0.50;100.00
23899;BME280;20544;50.018;20.010;2023-01-29T02:11:04;99658.14;;;-0.51;100.00
23899;BME280;20544;50.018;20.010;2023-01-29T02:14:21;99650.59;;;-0.55;100.00
23899;BME280;20544;50.018;20.010;2023-01-29T02:17:38;99660.19;;;-0.56;100.00
23899;BME280;20544;50.018;20.010;2023-01-29T02:21:06;99653.19;;;-0.55;100.00
23899;BME280;20544;50.018;20.010;2023-01-29T02:24:56;99640.26;;;-0.57;100.00
23899;BME280;20544;50.018;20.010;2023-01-29T02:28:23;99638.48;;;-0.56;100.00
23899;BME280;20544;50.018;20.010;2023-01-29T02:31:49;99641.28;;;-0.59;100.00
23899;BME280;20544;50.018;20.010;2023-01-29T02:35:15;99640.06;;;-0.54;100.00
23899;BME280;20544;50.018;20.010;2023-01-29T02:38:44;99636.83;;;-0.57;100.00
23899;BME280;20544;50.018;20.010;2023-01-29T02:42:12;99645.21;;;-0.52;100.00
23899;BME280;20544;50.018;20.010;2023-01-29T02:45:28;99635.34;;;-0.47;100.00
23899;BME280;20544;50.018;20.010;2023-01-29T02:48:52;99642.97;;;-0.44;100.00
23899;BME280;20544;50.018;20.010;2023-01-29T02:52:13;99641.22;;;-0.43;100.00
23899;BME280;20544;50.018;20.010;2023-01-29T02:55:34;99640.83;;;-0.52;100.00
23899;BME280;20544;50.018;20.010;2023-01-29T02:58:56;99640.73;;;-0.50;100.00
23899;BME280;20544;50.018;20.010;2023-01-29T03:02:16;99630.59;;;-0.55;100.00
23899;BME280;20544;50.018;20.010;2023-01-29T03:05:38;99636.73;;;-0.56;100.00
23899;BME280;20544;50.018;20.010;2023-01-29T03:09:00;99635.87;;;-0.56;100.00
23899;BME280;20544;50.018;20.010;2023-01-29T03:12:21;99641.19;;;-0.58;100.00
23899;BME280;20544;50.018;20.010;2023-01-29T03:15:45;99655.80;;;-0.55;100.00
23899;BME280;20544;50.018;20.010;2023-01-29T03:19:09;99663.52;;;-0.54;100.00
23899;BME280;20544;50.018;20.010;2023-01-29T03:22:27;99661.37;;;-0.61;100.00
23899;BME280;20544;50.018;20.010;2023-01-29T03:25:45;99661.91;;;-0.71;100.00
23899;BME280;20544;50.018;20.010;2023-01-29T03:29:16;99657.27;;;-0.66;100.00
23899;BME280;20544;50.018;20.010;2023-01-29T03:32:51;99661.56;;;-0.64;100.00
23899;BME280;20544;50.018;20.010;2023-01-29T03:36:14;99670.39;;;-0.67;100.00
23899;BME280;20544;50.018;20.010;2023-01-29T03:39:33;99666.62;;;-0.77;100.00
23899;BME280;20544;50.018;20.010;2023-01-29T03:42:55;99665.59;;;-0.75;100.00
23899;BME280;20544;50.018;20.010;2023-01-29T03:46:19;99670.17;;;-0.78;100.00
23899;BME280;20544;50.018;20.010;2023-01-29T03:49:41;99667.56;;;-0.78;100.00
23899;BME280;20544;50.018;20.010;2023-01-29T03:53:06;99668.30;;;-0.76;100.00
23899;BME280;20544;50.018;20.010;2023-01-29T03:56:29;99659.91;;;-0.82;100.00
23899;BME280;20544;50.018;20.010;2023-01-29T03:59:52;99648.00;;;-0.86;100.00
23899;BME280;20544;50.018;20.010;2023-01-29T04:03:25;99647.48;;;-0.92;100.00
23899;BME280;20544;50.018;20.010;2023-01-29T04:06:48;99644.31;;;-0.98;100.00
23899;BME280;20544;50.018;20.010;2023-01-29T04:10:08;99641.22;;;-1.04;100.00
23899;BME280;20544;50.018;20.010;2023-01-29T04:13:28;99640.78;;;-0.96;100.00
23899;BME280;20544;50.018;20.010;2023-01-29T04:16:49;99645.99;;;-0.96;100.00
23899;BME280;20544;50.018;20.010;2023-01-29T04:20:15;99640.69;;;-0.95;100.00
23899;BME280;20544;50.018;20.010;2023-01-29T04:23:31;99631.80;;;-0.91;100.00
23899;BME280;20544;50.018;20.010;2023-01-29T04:26:57;99630.27;;;-0.95;100.00
23899;BME280;20544;50.018;20.010;2023-01-29T04:30:27;99631.13;;;-0.94;100.00
23899;BME280;20544;50.018;20.010;2023-01-29T04:33:52;99633.64;;;-0.93;100.00
23899;BME280;20544;50.018;20.010;2023-01-29T04:37:14;99631.38;;;-0.99;100.00
23899;BME280;20544;50.018;20.010;2023-01-29T04:40:35;99620.77;;;-0.96;100.00
23899;BME280;20544;50.018;20.010;2023-01-29T04:44:01;99610.19;;;-0.93;100.00
23899;BME280;20544;50.018;20.010;2023-01-29T04:47:25;99593.55;;;-0.90;100.00
23899;BME280;20544;50.018;20.010;2023-01-29T04:50:45;99592.43;;;-0.86;100.00
23899;BME280;20544;50.018;20.010;2023-01-29T04:54:07;99596.46;;;-0.80;100.00
23899;BME280;20544;50.018;20.010;2023-01-29T04:57:28;99590.33;;;-0.79;100.00
23899;BME280;20544;50.018;20.010;2023-01-29T05:00:48;99592.17;;;-0.82;100.00
23899;BME280;20544;50.018;20.010;2023-01-29T05:04:09;99595.70;;;-0.83;100.00
23899;BME280;20544;50.018;20.010;2023-01-29T05:07:28;99585.92;;;-0.93;100.00
23899;BME280;20544;50.018;20.010;2023-01-29T05:10:47;99579.28;;;-0.99;100.00
23899;BME280;20544;50.018;20.010;2023-01-29T05:14:06;99579.48;;;-1.02;100.00
23899;BME280;20544;50.018;20.010;2023-01-29T05:17:22;99576.94;;;-1.04;100.00
23899;BME280;20544;50.018;20.010;2023-01-29T05:20:39;99578.81;;;-1.06;100.00
23899;BME280;20544;50.018;20.010;2023-01-29T05:24:12;99584.69;;;-1.02;100.00
23899;BME280;20544;50.018;20.010;2023-01-29T05:27:33;99592.41;;;-1.01;100.00
23899;BME280;20544;50.018;20.010;2023-01-29T05:31:04;99597.71;;;-1.02;100.00
23899;BME280;20544;50.018;20.010;2023-01-29T05:34:21;99601.59;;;-1.09;100.00
23899;BME280;20544;50.018;20.010;2023-01-29T05:37:39;99608.38;;;-1.07;100.00
23899;BME280;20544;50.018;20.010;2023-01-29T05:40:58;99601.17;;;-1.18;100.00
23899;BME280;20544;50.018;20.010;2023-01-29T05:44:15;99614.44;;;-1.22;100.00
23899;BME280;20544;50.018;20.010;2023-01-29T05:47:34;99615.05;;;-1.17;100.00
23899;BME280;20544;50.018;20.010;2023-01-29T05:50:50;99619.64;;;-1.22;100.00
23899;BME280;20544;50.018;20.010;2023-01-29T05:54:07;99619.59;;;-1.21;100.00
23899;BME280;20544;50.018;20.010;2023-01-29T05:57:24;99635.11;;;-1.19;100.00
23899;BME280;20544;50.018;20.010;2023-01-29T06:00:41;99631.51;;;-1.33;100.00
23899;BME280;20544;50.018;20.010;2023-01-29T06:03:57;99638.06;;;-1.25;100.00
23899;BME280;20544;50.018;20.010;2023-01-29T06:07:13;99650.31;;;-1.27;100.00
23899;BME280;20544;50.018;20.010;2023-01-29T06:10:29;99648.14;;;-1.35;100.00
23899;BME280;20544;50.018;20.010;2023-01-29T06:13:46;99637.48;;;-1.31;100.00
23899;BME280;20544;50.018;20.010;2023-01-29T06:17:02;99634.54;;;-1.40;100.00
23899;BME280;20544;50.018;20.010;2023-01-29T06:20:19;99650.16;;;-1.40;100.00
23899;BME280;20544;50.018;20.010;2023-01-29T06:23:36;99647.89;;;-1.47;100.00
23899;BME280;20544;50.018;20.010;2023-01-29T06:26:53;99652.23;;;-1.47;100.00
23899;BME280;20544;50.018;20.010;2023-01-29T06:30:12;99659.73;;;-1.57;100.00
23899;BME280;20544;50.018;20.010;2023-01-29T06:33:31;99659.22;;;-1.48;100.00
23899;BME280;20544;50.018;20.010;2023-01-29T06:36:47;99656.61;;;-1.48;100.00
23899;BME280;20544;50.018;20.010;2023-01-29T06:40:03;99655.52;;;-1.43;100.00
23899;BME280;20544;50.018;20.010;2023-01-29T06:43:24;99662.41;;;-1.42;100.00
23899;BME280;20544;50.018;20.010;2023-01-29T06:46:40;99672.47;;;-1.52;100.00
23899;BME280;20544;50.018;20.010;2023-01-29T06:49:56;99672.56;;;-1.54;100.00
23899;BME280;20544;50.018;20.010;2023-01-29T06:53:12;99673.33;;;-1.52;100.00
23899;BME280;20544;50.018;20.010;2023-01-29T06:56:31;99674.83;;;-1.48;100.00
23899;BME280;20544;50.018;20.010;2023-01-29T06:59:47;99673.33;;;-1.52;100.00
23899;BME280;20544;50.018;20.010;2023-01-29T07:03:04;99679.78;;;-1.59;100.00
23899;BME280;20544;50.018;20.010;2023-01-29T07:06:25;99668.13;;;-1.52;100.00
23899;BME280;20544;50.018;20.010;2023-01-29T07:09:44;99663.41;;;-1.45;100.00
23899;BME280;20544;50.018;20.010;2023-01-29T07:13:01;99666.11;;;-1.47;100.00
23899;BME280;20544;50.018;20.010;2023-01-29T07:16:17;99682.64;;;-1.48;100.00
23899;BME280;20544;50.018;20.010;2023-01-29T07:19:34;99679.13;;;-1.47;100.00
23899;BME280;20544;50.018;20.010;2023-01-29T07:22:50;99681.48;;;-1.42;100.00
23899;BME280;20544;50.018;20.010;2023-01-29T07:26:07;99683.06;;;-1.55;100.00
23899;BME280;20544;50.018;20.010;2023-01-29T07:29:25;99673.80;;;-1.61;100.00
23899;BME280;20544;50.018;20.010;2023-01-29T07:32:41;99672.21;;;-1.64;100.00
23899;BME280;20544;50.018;20.010;2023-01-29T07:35:57;99676.14;;;-1.72;100.00
23899;BME280;20544;50.018;20.010;2023-01-29T07:39:13;99678.33;;;-1.65;100.00
23899;BME280;20544;50.018;20.010;2023-01-29T07:42:30;99693.11;;;-1.65;100.00
23899;BME280;20544;50.018;20.010;2023-01-29T07:45:46;99691.80;;;-1.90;100.00
23899;BME280;20544;50.018;20.010;2023-01-29T07:49:02;99691.93;;;-1.75;100.00
23899;BME280;20544;50.018;20.010;2023-01-29T07:52:18;99700.42;;;-1.72;100.00
23899;BME280;20544;50.018;20.010;2023-01-29T07:55:35;99702.38;;;-1.59;100.00
23899;BME280;20544;50.018;20.010;2023-01-29T07:58:51;99714.25;;;-1.71;100.00
23899;BME280;20544;50.018;20.010;2023-01-29T08:02:08;99717.45;;;-1.66;100.00
23899;BME280;20544;50.018;20.010;2023-01-29T08:05:25;99715.02;;;-1.69;100.00
23899;BME280;20544;50.018;20.010;2023-01-29T08:08:41;99723.06;;;-1.74;100.00
23899;BME280;20544;50.018;20.010;2023-01-29T08:11:58;99721.50;;;-1.60;100.00
23899;BME280;20544;50.018;20.010;2023-01-29T08:15:14;99732.41;;;-1.54;100.00
23899;BME280;20544;50.018;20.010;2023-01-29T08:18:31;99726.89;;;-1.48;100.00
23899;BME280;20544;50.018;20.010;2023-01-29T08:21:51;99729.48;;;-1.48;100.00
23899;BME280;20544;50.018;20.010;2023-01-29T08:25:08;99740.13;;;-1.52;100.00
23899;BME280;20544;50.018;20.010;2023-01-29T08:28:25;99747.73;;;-1.32;100.00
23899;BME280;20544;50.018;20.010;2023-01-29T08:31:41;99751.95;;;-1.13;100.00
23899;BME280;20544;50.018;20.010;2023-01-29T08:34:57;99763.11;;;-0.95;100.00
23899;BME280;20544;50.018;20.010;2023-01-29T08:38:15;99760.60;;;-0.96;100.00
23899;BME280;20544;50.018;20.010;2023-01-29T08:41:34;99757.33;;;-0.84;100.00
23899;BME280;20544;50.018;20.010;2023-01-29T08:44:50;99769.00;;;-0.75;100.00
23899;BME280;20544;50.018;20.010;2023-01-29T08:48:07;99761.27;;;-0.77;100.00
23899;BME280;20544;50.018;20.010;2023-01-29T08:51:25;99750.76;;;-0.75;100.00
23899;BME280;20544;50.018;20.010;2023-01-29T08:54:41;99744.67;;;-0.60;100.00
23899;BME280;20544;50.018;20.010;2023-01-29T08:57:57;99740.29;;;-0.43;100.00
23899;BME280;20544;50.018;20.010;2023-01-29T09:01:15;99748.07;;;-0.27;100.00
23899;BME280;20544;50.018;20.010;2023-01-29T09:04:31;99741.30;;;-0.46;100.00
23899;BME280;20544;50.018;20.010;2023-01-29T09:07:47;99730.59;;;-0.41;100.00
23899;BME280;20544;50.018;20.010;2023-01-29T09:11:04;99729.64;;;-0.55;100.00
23899;BME280;20544;50.018;20.010;2023-01-29T09:14:21;99728.63;;;-0.52;100.00
23899;BME280;20544;50.018;20.010;2023-01-29T09:17:37;99726.19;;;-0.25;100.00
23899;BME280;20544;50.018;20.010;2023-01-29T09:20:54;99719.66;;;-0.18;100.00
23899;BME280;20544;50.018;20.010;2023-01-29T09:24:11;99739.08;;;-0.07;100.00
23899;BME280;20544;50.018;20.010;2023-01-29T09:27:27;99739.44;;;-0.13;100.00
23899;BME280;20544;50.018;20.010;2023-01-29T09:30:44;99737.39;;;-0.08;100.00
23899;BME280;20544;50.018;20.010;2023-01-29T09:34:02;99725.47;;;-0.12;100.00
23899;BME280;20544;50.018;20.010;2023-01-29T09:37:24;99725.38;;;0.04;100.00
23899;BME280;20544;50.018;20.010;2023-01-29T09:40:48;99711.67;;;-0.14;100.00
23899;BME280;20544;50.018;20.010;2023-01-29T09:44:12;99705.23;;;-0.23;100.00
23899;BME280;20544;50.018;20.010;2023-01-29T09:47:33;99699.97;;;-0.38;100.00
23899;BME280;20544;50.018;20.010;2023-01-29T09:50:53;99701.19;;;-0.43;100.00
23899;BME280;20544;50.018;20.010;2023-01-29T09:54:24;99689.59;;;-0.54;100.00
23899;BME280;20544;50.018;20.010;2023-01-29T09:57:49;99686.03;;;-0.67;100.00
23899;BME280;20544;50.018;20.010;2023-01-29T10:01:14;99678.72;;;-0.76;100.00
23899;BME280;20544;50.018;20.010;2023-01-29T10:05:13;99666.27;;;-0.71;100.00
23899;BME280;20544;50.018;20.010;2023-01-29T10:12:56;99656.55;;;-0.84;100.00
23899;BME280;20544;50.018;20.010;2023-01-29T10:16:24;99662.01;;;-0.72;100.00
23899;BME280;20544;50.018;20.010;2023-01-29T10:20:04;99662.84;;;-0.72;100.00
23899;BME280;20544;50.018;20.010;2023-01-29T10:23:40;99659.11;;;-0.68;100.00
23899;BME280;20544;50.018;20.010;2023-01-29T10:26:59;99654.73;;;-0.98;100.00
23899;BME280;20544;50.018;20.010;2023-01-29T10:30:25;99658.92;;;-0.95;100.00
23899;BME280;20544;50.018;20.010;2023-01-29T10:33:46;99647.48;;;-0.92;100.00
23899;BME280;20544;50.018;20.010;2023-01-29T10:37:13;99634.97;;;-0.86;100.00
23899;BME280;20544;50.018;20.010;2023-01-29T10:40:36;99629.47;;;-0.81;100.00
23899;BME280;20544;50.018;20.010;2023-01-29T10:44:01;99620.07;;;-0.84;100.00
23899;BME280;20544;50.018;20.010;2023-01-29T10:47:29;99614.26;;;-1.03;100.00
23899;BME280;20544;50.018;20.010;2023-01-29T10:50:53;99596.95;;;-1.04;100.00
23899;BME280;20544;50.018;20.010;2023-01-29T10:54:18;99588.95;;;-1.01;100.00
23899;BME280;20544;50.018;20.010;2023-01-29T10:57:51;99572.49;;;-1.02;100.00
23899;BME280;20544;50.018;20.010;2023-01-29T11:01:12;99571.22;;;-0.94;100.00
23899;BME280;20544;50.018;20.010;2023-01-29T11:04:29;99559.47;;;-1.02;100.00
23899;BME280;20544;50.018;20.010;2023-01-29T11:07:48;99553.79;;;-1.08;100.00
23899;BME280;20544;50.018;20.010;2023-01-29T11:11:13;99543.65;;;-0.99;100.00
23899;BME280;20544;50.018;20.010;2023-01-29T11:14:39;99540.63;;;-0.91;100.00
23899;BME280;20544;50.018;20.010;2023-01-29T11:18:09;99528.52;;;-0.92;100.00
23899;BME280;20544;50.018;20.010;2023-01-29T11:21:27;99511.93;;;-1.05;100.00
23899;BME280;20544;50.018;20.010;2023-01-29T11:24:44;99515.65;;;-1.09;100.00
23899;BME280;20544;50.018;20.010;2023-01-29T11:28:02;99512.59;;;-1.02;100.00
23899;BME280;20544;50.018;20.010;2023-01-29T11:31:27;99504.22;;;-0.92;100.00
23899;BME280;20544;50.018;20.010;2023-01-29T11:35:17;99513.34;;;-1.00;100.00
23899;BME280;20544;50.018;20.010;2023-01-29T11:38:34;99496.14;;;-0.88;100.00
23899;BME280;20544;50.018;20.010;2023-01-29T11:41:54;99500.33;;;-0.85;100.00
23899;BME280;20544;50.018;20.010;2023-01-29T11:45:25;99487.70;;;-0.77;100.00
23899;BME280;20544;50.018;20.010;2023-01-29T11:48:45;99486.20;;;-0.67;100.00
23899;BME280;20544;50.018;20.010;2023-01-29T11:52:06;99477.56;;;-0.67;100.00
23899;BME280;20544;50.018;20.010;2023-01-29T11:55:22;99473.64;;;-0.74;100.00
23899;BME280;20544;50.018;20.010;2023-01-29T11:58:42;99471.22;;;-0.63;100.00
23899;BME280;20544;50.018;20.010;2023-01-29T12:02:12;99467.58;;;-0.75;100.00
23899;BME280;20544;50.018;20.010;2023-01-29T12:05:34;99466.29;;;-0.53;100.00
23899;BME280;20544;50.018;20.010;2023-01-29T12:08:57;99451.68;;;-0.56;100.00
23899;BME280;20544;50.018;20.010;2023-01-29T12:12:28;99453.35;;;-0.69;100.00
23899;BME280;20544;50.018;20.010;2023-01-29T12:15:50;99451.78;;;-0.57;100.00
23899;BME280;20544;50.018;20.010;2023-01-29T12:19:24;99457.92;;;-0.58;100.00
23899;BME280;20544;50.018;20.010;2023-01-29T12:22:46;99452.05;;;-0.62;100.00
23899;BME280;20544;50.018;20.010;2023-01-29T12:26:07;99446.09;;;-0.64;100.00
23899;BME280;20544;50.018;20.010;2023-01-29T12:29:32;99463.61;;;-0.66;100.00
23899;BME280;20544;50.018;20.010;2023-01-29T12:32:57;99460.52;;;-0.73;100.00
23899;BME280;20544;50.018;20.010;2023-01-29T12:36:19;99455.86;;;-0.68;100.00
23899;BME280;20544;50.018;20.010;2023-01-29T12:39:37;99457.27;;;-0.62;100.00
23899;BME280;20544;50.018;20.010;2023-01-29T12:42:56;99469.06;;;-0.56;100.00
23899;BME280;20544;50.018;20.010;2023-01-29T12:46:17;99467.11;;;-0.53;100.00
23899;BME280;20544;50.018;20.010;2023-01-29T12:49:39;99460.33;;;-0.55;100.00
23899;BME280;20544;50.018;20.010;2023-01-29T12:52:59;99450.27;;;-0.47;100.00
23899;BME280;20544;50.018;20.010;2023-01-29T12:56:22;99459.32;;;-0.67;100.00
23899;BME280;20544;50.018;20.010;2023-01-29T12:59:43;99458.47;;;-0.68;100.00
23899;BME280;20544;50.018;20.010;2023-01-29T13:03:07;99459.59;;;-0.72;100.00
23899;BME280;20544;50.018;20.010;2023-01-29T13:06:30;99448.78;;;-0.80;100.00
23899;BME280;20544;50.018;20.010;2023-01-29T13:09:53;99453.73;;;-0.61;100.00
23899;BME280;20544;50.018;20.010;2023-01-29T13:13:18;99448.69;;;-0.64;100.00
23899;BME280;20544;50.018;20.010;2023-01-29T13:16:39;99445.64;;;-0.71;100.00
23899;BME280;20544;50.018;20.010;2023-01-29T13:20:02;99439.67;;;-0.73;100.00
23899;BME280;20544;50.018;20.010;2023-01-29T13:23:24;99421.16;;;-0.68;100.00
23899;BME280;20544;50.018;20.010;2023-01-29T13:26:42;99425.44;;;-0.67;100.00
23899;BME280;20544;50.018;20.010;2023-01-29T13:30:02;99420.88;;;-0.63;100.00
23899;BME280;20544;50.018;20.010;2023-01-29T13:33:22;99409.81;;;-0.67;100.00
23899;BME280;20544;50.018;20.010;2023-01-29T13:36:39;99419.10;;;-0.63;100.00
23899;BME280;20544;50.018;20.010;2023-01-29T13:39:57;99426.09;;;-0.63;100.00
23899;BME280;20544;50.018;20.010;2023-01-29T13:43:21;99420.50;;;-0.57;100.00
23899;BME280;20544;50.018;20.010;2023-01-29T13:46:43;99432.06;;;-0.76;100.00
23899;BME280;20544;50.018;20.010;2023-01-29T13:50:05;99435.77;;;-0.66;100.00
23899;BME280;20544;50.018;20.010;2023-01-29T13:53:26;99424.14;;;-0.74;100.00
23899;BME280;20544;50.018;20.010;2023-01-29T13:56:58;99414.84;;;-0.78;100.00
23899;BME280;20544;50.018;20.010;2023-01-29T14:03:57;99415.02;;;-0.82;100.00
23899;BME280;20544;50.018;20.010;2023-01-29T14:11:36;99421.80;;;-0.79;100.00
23899;BME280;20544;50.018;20.010;2023-01-29T14:15:17;99417.99;;;-0.88;100.00
23899;BME280;20544;50.018;20.010;2023-01-29T14:18:45;99426.46;;;-0.84;100.00
23899;BME280;20544;50.018;20.010;2023-01-29T14:22:22;99423.41;;;-0.91;100.00
23899;BME280;20544;50.018;20.010;2023-01-29T14:25:42;99414.08;;;-0.95;100.00
23899;BME280;20544;50.018;20.010;2023-01-29T14:29:15;99402.45;;;-1.04;100.00
23899;BME280;20544;50.018;20.010;2023-01-29T14:32:37;99400.77;;;-1.05;100.00
23899;BME280;20544;50.018;20.010;2023-01-29T14:35:55;99410.56;;;-1.08;100.00
23899;BME280;20544;50.018;20.010;2023-01-29T14:39:30;99408.58;;;-1.05;100.00
23899;BME280;20544;50.018;20.010;2023-01-29T14:42:59;99403.67;;;-1.09;100.00
23899;BME280;20544;50.018;20.010;2023-01-29T14:46:43;99406.08;;;-1.06;100.00
23899;BME280;20544;50.018;20.010;2023-01-29T14:50:01;99399.10;;;-1.20;100.00
23899;BME280;20544;50.018;20.010;2023-01-29T14:53:26;99403.28;;;-1.18;100.00
23899;BME280;20544;50.018;20.010;2023-01-29T14:57:02;99398.08;;;-1.18;100.00
23899;BME280;20544;50.018;20.010;2023-01-29T15:00:35;99401.25;;;-1.27;100.00
23899;BME280;20544;50.018;20.010;2023-01-29T15:03:57;99403.65;;;-1.24;100.00
23899;BME280;20544;50.018;20.010;2023-01-29T15:07:22;99407.64;;;-1.33;100.00
23899;BME280;20544;50.018;20.010;2023-01-29T15:10:44;99392.22;;;-1.36;100.00
23899;BME280;20544;50.018;20.010;2023-01-29T15:14:19;99388.59;;;-1.33;100.00
23899;BME280;20544;50.018;20.010;2023-01-29T15:17:41;99380.78;;;-1.33;100.00
23899;BME280;20544;50.018;20.010;2023-01-29T15:21:09;99383.09;;;-1.28;100.00
23899;BME280;20544;50.018;20.010;2023-01-29T15:24:26;99380.31;;;-1.25;100.00
23899;BME280;20544;50.018;20.010;2023-01-29T15:27:44;99372.77;;;-1.30;100.00
23899;BME280;20544;50.018;20.010;2023-01-29T15:31:04;99365.72;;;-1.28;100.00
23899;BME280;20544;50.018;20.010;2023-01-29T15:34:25;99361.64;;;-1.32;100.00
23899;BME280;20544;50.018;20.010;2023-01-29T15:37:42;99354.92;;;-1.36;100.00
23899;BME280;20544;50.018;20.010;2023-01-29T15:41:16;99352.88;;;-1.45;100.00
23899;BME280;20544;50.018;20.010;2023-01-29T15:44:35;99360.49;;;-1.42;100.00
23899;BME280;20544;50.018;20.010;2023-01-29T15:47:53;99349.62;;;-1.49;100.00
23899;BME280;20544;50.018;20.010;2023-01-29T15:51:17;99356.67;;;-1.51;100.00
23899;BME280;20544;50.018;20.010;2023-01-29T15:54:36;99369.42;;;-1.47;100.00
23899;BME280;20544;50.018;20.010;2023-01-29T15:57:54;99360.59;;;-1.44;100.00
23899;BME280;20544;50.018;20.010;2023-01-29T16:01:12;99363.45;;;-1.49;100.00
23899;BME280;20544;50.018;20.010;2023-01-29T16:04:30;99352.13;;;-1.48;100.00
23899;BME280;20544;50.018;20.010;2023-01-29T16:07:47;99351.63;;;-1.69;100.00
23899;BME280;20544;50.018;20.010;2023-01-29T16:11:07;99342.27;;;-1.57;100.00
23899;BME280;20544;50.018;20.010;2023-01-29T16:14:26;99352.58;;;-1.55;100.00
23899;BME280;20544;50.018;20.010;2023-01-29T16:17:45;99348.13;;;-1.53;100.00
23899;BME280;20544;50.018;20.010;2023-01-29T16:21:03;99337.89;;;-1.56;100.00
23899;BME280;20544;50.018;20.010;2023-01-29T16:24:23;99343.36;;;-1.61;100.00
23899;BME280;20544;50.018;20.010;2023-01-29T16:27:41;99353.96;;;-1.64;100.00
23899;BME280;20544;50.018;20.010;2023-01-29T16:31:00;99351.63;;;-1.69;100.00
23899;BME280;20544;50.018;20.010;2023-01-29T16:34:24;99355.70;;;-1.65;100.00
23899;BME280;20544;50.018;20.010;2023-01-29T16:37:38;99365.84;;;-1.74;100.00
23899;BME280;20544;50.018;20.010;2023-01-29T16:41:12;99369.00;;;-1.69;100.00
23899;BME280;20544;50.018;20.010;2023-01-29T16:44:36;99370.39;;;-1.64;100.00
23899;BME280;20544;50.018;20.010;2023-01-29T16:48:19;99356.37;;;-1.61;100.00
23899;BME280;20544;50.018;20.010;2023-01-29T16:51:39;99352.64;;;-1.71;100.00
23899;BME280;20544;50.018;20.010;2023-01-29T16:55:04;99358.91;;;-1.59;100.00
23899;BME280;20544;50.018;20.010;2023-01-29T16:58:33;99361.31;;;-1.56;100.00
23899;BME280;20544;50.018;20.010;2023-01-29T17:01:50;99373.20;;;-1.52;100.00
23899;BME280;20544;50.018;20.010;2023-01-29T17:05:16;99366.98;;;-1.50;100.00
23899;BME280;20544;50.018;20.010;2023-01-29T17:08:40;99354.16;;;-1.53;100.00
23899;BME280;20544;50.018;20.010;2023-01-29T17:12:16;99352.19;;;-1.64;100.00
23899;BME280;20544;50.018;20.010;2023-01-29T17:15:42;99331.07;;;-1.73;100.00
23899;BME280;20544;50.018;20.010;2023-01-29T17:19:00;99336.77;;;-1.67;100.00
23899;BME280;20544;50.018;20.010;2023-01-29T17:22:17;99335.19;;;-1.69;100.00
23899;BME280;20544;50.018;20.010;2023-01-29T17:25:34;99328.05;;;-1.66;100.00
23899;BME280;20544;50.018;20.010;2023-01-29T17:28:54;99317.44;;;-1.63;100.00
23899;BME280;20544;50.018;20.010;2023-01-29T17:32:14;99312.99;;;-1.60;100.00